Terminal Aerodrome Forecast
Issued by NWS

Home | Current Version | Previous Version | Text Only | Print | Product List | Glossary On
Versions: 1 2 3 4 5 6 7 8 9 10 11 12 13 14
000
FTUS44 KLIX 231732
TAFMSY
TAF
KMSY 231732Z 2318/2418 VRB04KT P6SM VCTS SCT035CB BKN250
      TEMPO 2318/2322 VRB20G30KT 2SM TSRA BKN025CB
     FM240000 VRB04KT P6SM FEW050 SCT200
     FM241500 27005KT P6SM VCSH SCT025 BKN090=

USA.gov is the U.S. government's official web portal to all federal, state and local government web resources and services.